sensor_id;sensor_type;location;lat;lon;timestamp;P1;durP1;ratioP1;P2;durP2;ratioP2
9924;SDS011;5001;51.674;7.868;2024-02-23T00:00:49;16.20;;;15.30;;
9924;SDS011;5001;51.674;7.868;2024-02-23T00:03:16;16.23;;;15.23;;
9924;SDS011;5001;51.674;7.868;2024-02-23T00:05:43;16.30;;;15.30;;
9924;SDS011;5001;51.674;7.868;2024-02-23T00:08:10;15.70;;;14.80;;
9924;SDS011;5001;51.674;7.868;2024-02-23T00:10:37;16.13;;;15.17;;
9924;SDS011;5001;51.674;7.868;2024-02-23T00:13:04;16.30;;;15.27;;
9924;SDS011;5001;51.674;7.868;2024-02-23T00:15:31;16.07;;;15.17;;
9924;SDS011;5001;51.674;7.868;2024-02-23T00:17:58;16.03;;;14.93;;
9924;SDS011;5001;51.674;7.868;2024-02-23T00:20:25;16.17;;;15.27;;
9924;SDS011;5001;51.674;7.868;2024-02-23T00:22:52;16.03;;;15.13;;
9924;SDS011;5001;51.674;7.868;2024-02-23T00:25:19;15.80;;;14.90;;
9924;SDS011;5001;51.674;7.868;2024-02-23T00:27:46;16.33;;;15.13;;
9924;SDS011;5001;51.674;7.868;2024-02-23T00:30:13;15.97;;;14.97;;
9924;SDS011;5001;51.674;7.868;2024-02-23T00:32:40;15.47;;;14.57;;
9924;SDS011;5001;51.674;7.868;2024-02-23T00:35:07;15.97;;;14.97;;
9924;SDS011;5001;51.674;7.868;2024-02-23T00:37:34;16.07;;;15.07;;
9924;SDS011;5001;51.674;7.868;2024-02-23T00:40:02;15.60;;;14.70;;
9924;SDS011;5001;51.674;7.868;2024-02-23T00:42:33;15.40;;;14.60;;
9924;SDS011;5001;51.674;7.868;2024-02-23T00:45:00;15.43;;;14.57;;
9924;SDS011;5001;51.674;7.868;2024-02-23T00:47:27;15.57;;;14.67;;
9924;SDS011;5001;51.674;7.868;2024-02-23T00:49:54;15.50;;;14.70;;
9924;SDS011;5001;51.674;7.868;2024-02-23T00:52:21;15.87;;;14.97;;
9924;SDS011;5001;51.674;7.868;2024-02-23T00:54:48;15.70;;;14.80;;
9924;SDS011;5001;51.674;7.868;2024-02-23T00:57:15;15.40;;;14.50;;
9924;SDS011;5001;51.674;7.868;2024-02-23T00:59:42;15.30;;;14.50;;
9924;SDS011;5001;51.674;7.868;2024-02-23T01:02:09;15.80;;;14.87;;
9924;SDS011;5001;51.674;7.868;2024-02-23T01:04:36;16.33;;;15.33;;
9924;SDS011;5001;51.674;7.868;2024-02-23T01:07:03;16.70;;;15.70;;
9924;SDS011;5001;51.674;7.868;2024-02-23T01:09:30;16.00;;;15.10;;
9924;SDS011;5001;51.674;7.868;2024-02-23T01:11:57;16.37;;;15.37;;
9924;SDS011;5001;51.674;7.868;2024-02-23T01:14:24;16.30;;;15.40;;
9924;SDS011;5001;51.674;7.868;2024-02-23T01:16:51;15.90;;;15.00;;
9924;SDS011;5001;51.674;7.868;2024-02-23T01:19:18;16.70;;;15.50;;
9924;SDS011;5001;51.674;7.868;2024-02-23T01:21:45;16.03;;;15.03;;
9924;SDS011;5001;51.674;7.868;2024-02-23T01:24:12;15.60;;;14.70;;
9924;SDS011;5001;51.674;7.868;2024-02-23T01:26:39;15.60;;;14.70;;
9924;SDS011;5001;51.674;7.868;2024-02-23T01:29:08;15.37;;;14.57;;
9924;SDS011;5001;51.674;7.868;2024-02-23T01:31:35;15.57;;;14.67;;
9924;SDS011;5001;51.674;7.868;2024-02-23T01:34:02;15.70;;;14.80;;
9924;SDS011;5001;51.674;7.868;2024-02-23T01:36:29;15.67;;;14.77;;
9924;SDS011;5001;51.674;7.868;2024-02-23T01:38:56;16.10;;;15.10;;
9924;SDS011;5001;51.674;7.868;2024-02-23T01:41:23;17.37;;;15.93;;
9924;SDS011;5001;51.674;7.868;2024-02-23T01:43:50;16.90;;;15.77;;
9924;SDS011;5001;51.674;7.868;2024-02-23T01:46:17;16.30;;;15.30;;
9924;SDS011;5001;51.674;7.868;2024-02-23T01:48:45;17.20;;;16.10;;
9924;SDS011;5001;51.674;7.868;2024-02-23T01:51:12;16.90;;;15.80;;
9924;SDS011;5001;51.674;7.868;2024-02-23T01:53:39;17.00;;;15.90;;
9924;SDS011;5001;51.674;7.868;2024-02-23T01:56:07;17.70;;;16.40;;
9924;SDS011;5001;51.674;7.868;2024-02-23T01:58:38;16.83;;;15.73;;
9924;SDS011;5001;51.674;7.868;2024-02-23T02:01:05;16.73;;;15.67;;
9924;SDS011;5001;51.674;7.868;2024-02-23T02:03:32;17.10;;;16.00;;
9924;SDS011;5001;51.674;7.868;2024-02-23T02:05:59;16.80;;;15.20;;
9924;SDS011;5001;51.674;7.868;2024-02-23T02:08:27;16.93;;;15.60;;
9924;SDS011;5001;51.674;7.868;2024-02-23T02:10:54;17.40;;;16.30;;
9924;SDS011;5001;51.674;7.868;2024-02-23T02:13:21;16.30;;;15.30;;
9924;SDS011;5001;51.674;7.868;2024-02-23T02:15:48;15.80;;;14.70;;
9924;SDS011;5001;51.674;7.868;2024-02-23T02:18:15;15.83;;;14.87;;
9924;SDS011;5001;51.674;7.868;2024-02-23T02:20:50;16.60;;;15.60;;
9924;SDS011;5001;51.674;7.868;2024-02-23T02:23:19;16.20;;;15.20;;
9924;SDS011;5001;51.674;7.868;2024-02-23T02:25:56;15.77;;;14.87;;
9924;SDS011;5001;51.674;7.868;2024-02-23T02:28:24;16.53;;;15.53;;
9924;SDS011;5001;51.674;7.868;2024-02-23T02:30:52;15.27;;;14.27;;
9924;SDS011;5001;51.674;7.868;2024-02-23T02:33:19;16.07;;;15.13;;
9924;SDS011;5001;51.674;7.868;2024-02-23T02:35:46;16.57;;;15.50;;
9924;SDS011;5001;51.674;7.868;2024-02-23T02:38:14;16.13;;;15.13;;
9924;SDS011;5001;51.674;7.868;2024-02-23T02:40:41;16.17;;;14.87;;
9924;SDS011;5001;51.674;7.868;2024-02-23T02:43:08;15.20;;;14.30;;
9924;SDS011;5001;51.674;7.868;2024-02-23T02:45:35;15.70;;;14.60;;
9924;SDS011;5001;51.674;7.868;2024-02-23T02:48:02;15.70;;;14.70;;
9924;SDS011;5001;51.674;7.868;2024-02-23T02:50:30;15.70;;;14.70;;
9924;SDS011;5001;51.674;7.868;2024-02-23T02:52:58;15.37;;;14.47;;
9924;SDS011;5001;51.674;7.868;2024-02-23T02:55:25;15.60;;;14.43;;
9924;SDS011;5001;51.674;7.868;2024-02-23T02:57:52;16.60;;;15.13;;
9924;SDS011;5001;51.674;7.868;2024-02-23T03:04:19;15.00;;;14.10;;
9924;SDS011;5001;51.674;7.868;2024-02-23T03:06:46;15.00;;;14.10;;
9924;SDS011;5001;51.674;7.868;2024-02-23T03:09:13;15.20;;;14.20;;
9924;SDS011;5001;51.674;7.868;2024-02-23T03:11:40;15.23;;;14.20;;
9924;SDS011;5001;51.674;7.868;2024-02-23T03:14:09;14.90;;;14.00;;
9924;SDS011;5001;51.674;7.868;2024-02-23T03:16:36;14.80;;;14.00;;
9924;SDS011;5001;51.674;7.868;2024-02-23T03:19:04;15.20;;;14.30;;
9924;SDS011;5001;51.674;7.868;2024-02-23T03:21:31;15.33;;;14.27;;
9924;SDS011;5001;51.674;7.868;2024-02-23T03:23:57;15.30;;;14.40;;
9924;SDS011;5001;51.674;7.868;2024-02-23T03:26:24;15.50;;;14.40;;
9924;SDS011;5001;51.674;7.868;2024-02-23T03:28:51;14.90;;;14.00;;
9924;SDS011;5001;51.674;7.868;2024-02-23T03:31:18;15.63;;;14.33;;
9924;SDS011;5001;51.674;7.868;2024-02-23T03:33:45;15.20;;;14.30;;
9924;SDS011;5001;51.674;7.868;2024-02-23T03:36:13;15.17;;;14.27;;
9924;SDS011;5001;51.674;7.868;2024-02-23T03:38:42;15.80;;;14.80;;
9924;SDS011;5001;51.674;7.868;2024-02-23T03:41:09;15.10;;;14.20;;
9924;SDS011;5001;51.674;7.868;2024-02-23T03:43:36;14.90;;;14.07;;
9924;SDS011;5001;51.674;7.868;2024-02-23T03:46:05;14.93;;;14.13;;
9924;SDS011;5001;51.674;7.868;2024-02-23T03:48:32;15.23;;;14.27;;
9924;SDS011;5001;51.674;7.868;2024-02-23T03:51:00;15.80;;;14.50;;
9924;SDS011;5001;51.674;7.868;2024-02-23T03:53:27;15.23;;;14.33;;
9924;SDS011;5001;51.674;7.868;2024-02-23T03:55:54;15.73;;;14.43;;
9924;SDS011;5001;51.674;7.868;2024-02-23T03:58:21;15.60;;;14.60;;
9924;SDS011;5001;51.674;7.868;2024-02-23T04:00:48;16.27;;;15.10;;
9924;SDS011;5001;51.674;7.868;2024-02-23T04:03:15;16.13;;;15.13;;
9924;SDS011;5001;51.674;7.868;2024-02-23T04:05:42;16.07;;;15.07;;
9924;SDS011;5001;51.674;7.868;2024-02-23T04:08:09;17.10;;;15.53;;
9924;SDS011;5001;51.674;7.868;2024-02-23T04:10:36;16.80;;;15.70;;
9924;SDS011;5001;51.674;7.868;2024-02-23T04:13:03;17.80;;;16.30;;
9924;SDS011;5001;51.674;7.868;2024-02-23T04:15:30;16.53;;;15.23;;
9924;SDS011;5001;51.674;7.868;2024-02-23T04:17:57;18.07;;;16.77;;
9924;SDS011;5001;51.674;7.868;2024-02-23T04:20:24;17.00;;;15.60;;
9924;SDS011;5001;51.674;7.868;2024-02-23T04:22:52;16.67;;;15.47;;
9924;SDS011;5001;51.674;7.868;2024-02-23T04:25:20;16.20;;;15.30;;
9924;SDS011;5001;51.674;7.868;2024-02-23T04:27:46;16.90;;;15.60;;
9924;SDS011;5001;51.674;7.868;2024-02-23T04:30:13;16.60;;;15.60;;
9924;SDS011;5001;51.674;7.868;2024-02-23T04:32:40;16.20;;;15.20;;
9924;SDS011;5001;51.674;7.868;2024-02-23T04:35:08;16.30;;;15.20;;
9924;SDS011;5001;51.674;7.868;2024-02-23T04:37:35;16.40;;;15.20;;
9924;SDS011;5001;51.674;7.868;2024-02-23T04:40:03;16.03;;;15.07;;
9924;SDS011;5001;51.674;7.868;2024-02-23T04:42:32;15.80;;;14.70;;
9924;SDS011;5001;51.674;7.868;2024-02-23T04:44:59;15.87;;;14.90;;
9924;SDS011;5001;51.674;7.868;2024-02-23T04:47:26;16.30;;;14.77;;
9924;SDS011;5001;51.674;7.868;2024-02-23T04:49:53;15.60;;;14.70;;
9924;SDS011;5001;51.674;7.868;2024-02-23T04:52:20;15.67;;;14.67;;
9924;SDS011;5001;51.674;7.868;2024-02-23T04:54:47;15.80;;;14.70;;
9924;SDS011;5001;51.674;7.868;2024-02-23T04:57:14;16.03;;;14.97;;
9924;SDS011;5001;51.674;7.868;2024-02-23T04:59:41;15.57;;;14.67;;
9924;SDS011;5001;51.674;7.868;2024-02-23T05:02:09;16.33;;;15.00;;
9924;SDS011;5001;51.674;7.868;2024-02-23T05:04:36;16.00;;;14.93;;
9924;SDS011;5001;51.674;7.868;2024-02-23T05:07:03;15.57;;;14.40;;
9924;SDS011;5001;51.674;7.868;2024-02-23T05:09:30;15.83;;;14.87;;
9924;SDS011;5001;51.674;7.868;2024-02-23T05:11:58;15.60;;;14.60;;
9924;SDS011;5001;51.674;7.868;2024-02-23T05:14:26;15.33;;;14.43;;
9924;SDS011;5001;51.674;7.868;2024-02-23T05:16:53;15.70;;;14.70;;
9924;SDS011;5001;51.674;7.868;2024-02-23T05:19:20;16.20;;;15.10;;
9924;SDS011;5001;51.674;7.868;2024-02-23T05:21:47;16.70;;;15.70;;
9924;SDS011;5001;51.674;7.868;2024-02-23T05:24:14;15.40;;;14.50;;
9924;SDS011;5001;51.674;7.868;2024-02-23T05:26:41;15.90;;;14.80;;
9924;SDS011;5001;51.674;7.868;2024-02-23T05:29:10;16.57;;;15.30;;
9924;SDS011;5001;51.674;7.868;2024-02-23T05:31:51;16.50;;;15.20;;
9924;SDS011;5001;51.674;7.868;2024-02-23T05:34:19;16.17;;;14.97;;
9924;SDS011;5001;51.674;7.868;2024-02-23T05:36:47;16.70;;;15.50;;
9924;SDS011;5001;51.674;7.868;2024-02-23T05:39:14;16.00;;;14.93;;
9924;SDS011;5001;51.674;7.868;2024-02-23T05:41:41;16.00;;;15.00;;
9924;SDS011;5001;51.674;7.868;2024-02-23T05:44:09;16.23;;;15.00;;
9924;SDS011;5001;51.674;7.868;2024-02-23T05:46:36;15.90;;;14.80;;
9924;SDS011;5001;51.674;7.868;2024-02-23T05:49:03;15.90;;;14.90;;
9924;SDS011;5001;51.674;7.868;2024-02-23T05:51:30;15.93;;;14.90;;
9924;SDS011;5001;51.674;7.868;2024-02-23T05:53:58;17.10;;;16.00;;
9924;SDS011;5001;51.674;7.868;2024-02-23T05:56:25;16.93;;;15.47;;
9924;SDS011;5001;51.674;7.868;2024-02-23T05:58:52;17.07;;;15.87;;
9924;SDS011;5001;51.674;7.868;2024-02-23T06:01:19;16.13;;;14.97;;
9924;SDS011;5001;51.674;7.868;2024-02-23T06:03:46;16.20;;;15.13;;
9924;SDS011;5001;51.674;7.868;2024-02-23T06:06:13;18.17;;;16.33;;
9924;SDS011;5001;51.674;7.868;2024-02-23T06:08:41;15.87;;;14.87;;
9924;SDS011;5001;51.674;7.868;2024-02-23T06:11:09;15.60;;;14.70;;
9924;SDS011;5001;51.674;7.868;2024-02-23T06:13:37;17.33;;;16.10;;
9924;SDS011;5001;51.674;7.868;2024-02-23T06:16:05;16.20;;;15.30;;
9924;SDS011;5001;51.674;7.868;2024-02-23T06:18:36;16.67;;;15.40;;
9924;SDS011;5001;51.674;7.868;2024-02-23T06:21:10;16.40;;;15.40;;
9924;SDS011;5001;51.674;7.868;2024-02-23T06:23:44;16.53;;;15.07;;
9924;SDS011;5001;51.674;7.868;2024-02-23T06:26:11;15.70;;;14.80;;
9924;SDS011;5001;51.674;7.868;2024-02-23T06:28:39;16.40;;;15.33;;
9924;SDS011;5001;51.674;7.868;2024-02-23T06:31:09;16.77;;;15.50;;
9924;SDS011;5001;51.674;7.868;2024-02-23T06:33:36;16.77;;;15.47;;
9924;SDS011;5001;51.674;7.868;2024-02-23T06:36:04;17.27;;;15.87;;
9924;SDS011;5001;51.674;7.868;2024-02-23T06:38:31;18.03;;;16.30;;
9924;SDS011;5001;51.674;7.868;2024-02-23T06:40:58;17.20;;;15.90;;
9924;SDS011;5001;51.674;7.868;2024-02-23T06:43:25;16.20;;;15.20;;
9924;SDS011;5001;51.674;7.868;2024-02-23T06:45:55;16.67;;;15.57;;
9924;SDS011;5001;51.674;7.868;2024-02-23T06:48:23;16.80;;;15.70;;
9924;SDS011;5001;51.674;7.868;2024-02-23T06:50:55;17.47;;;15.93;;
9924;SDS011;5001;51.674;7.868;2024-02-23T06:53:24;17.83;;;16.00;;
9924;SDS011;5001;51.674;7.868;2024-02-23T06:55:51;17.03;;;15.73;;
9924;SDS011;5001;51.674;7.868;2024-02-23T06:58:17;16.30;;;15.30;;
9924;SDS011;5001;51.674;7.868;2024-02-23T07:00:44;16.70;;;15.40;;
9924;SDS011;5001;51.674;7.868;2024-02-23T07:03:12;16.53;;;15.37;;
9924;SDS011;5001;51.674;7.868;2024-02-23T07:05:40;15.97;;;14.97;;
9924;SDS011;5001;51.674;7.868;2024-02-23T07:08:11;16.60;;;15.40;;
9924;SDS011;5001;51.674;7.868;2024-02-23T07:10:38;17.20;;;15.63;;
9924;SDS011;5001;51.674;7.868;2024-02-23T07:13:08;16.60;;;15.40;;
9924;SDS011;5001;51.674;7.868;2024-02-23T07:15:36;16.93;;;15.63;;
9924;SDS011;5001;51.674;7.868;2024-02-23T07:18:03;16.53;;;15.33;;
9924;SDS011;5001;51.674;7.868;2024-02-23T07:20:31;16.43;;;15.20;;
9924;SDS011;5001;51.674;7.868;2024-02-23T07:22:58;16.10;;;15.10;;
9924;SDS011;5001;51.674;7.868;2024-02-23T07:25:25;17.03;;;15.73;;
9924;SDS011;5001;51.674;7.868;2024-02-23T07:27:52;16.60;;;15.40;;
9924;SDS011;5001;51.674;7.868;2024-02-23T07:30:19;16.23;;;14.93;;
9924;SDS011;5001;51.674;7.868;2024-02-23T07:32:46;16.80;;;15.50;;
9924;SDS011;5001;51.674;7.868;2024-02-23T07:35:18;16.73;;;15.57;;
9924;SDS011;5001;51.674;7.868;2024-02-23T07:37:45;16.90;;;15.80;;
9924;SDS011;5001;51.674;7.868;2024-02-23T07:40:13;16.37;;;15.27;;
9924;SDS011;5001;51.674;7.868;2024-02-23T07:42:44;16.90;;;15.60;;
9924;SDS011;5001;51.674;7.868;2024-02-23T07:45:12;16.47;;;15.37;;
9924;SDS011;5001;51.674;7.868;2024-02-23T07:47:39;17.00;;;15.80;;
9924;SDS011;5001;51.674;7.868;2024-02-23T07:50:06;16.60;;;15.50;;
9924;SDS011;5001;51.674;7.868;2024-02-23T07:52:34;17.10;;;15.80;;
9924;SDS011;5001;51.674;7.868;2024-02-23T07:55:02;16.60;;;15.40;;
9924;SDS011;5001;51.674;7.868;2024-02-23T07:57:31;16.87;;;15.77;;
9924;SDS011;5001;51.674;7.868;2024-02-23T07:59:59;16.60;;;15.50;;
9924;SDS011;5001;51.674;7.868;2024-02-23T08:02:37;16.37;;;15.27;;
9924;SDS011;5001;51.674;7.868;2024-02-23T08:05:05;15.97;;;14.97;;
9924;SDS011;5001;51.674;7.868;2024-02-23T08:07:33;16.70;;;15.60;;
9924;SDS011;5001;51.674;7.868;2024-02-23T08:10:00;16.80;;;15.53;;
9924;SDS011;5001;51.674;7.868;2024-02-23T08:12:29;17.70;;;15.80;;
9924;SDS011;5001;51.674;7.868;2024-02-23T08:14:56;16.80;;;15.60;;
9924;SDS011;5001;51.674;7.868;2024-02-23T08:17:23;16.23;;;15.13;;
9924;SDS011;5001;51.674;7.868;2024-02-23T08:19:51;16.10;;;15.00;;
9924;SDS011;5001;51.674;7.868;2024-02-23T08:22:19;15.70;;;14.80;;
9924;SDS011;5001;51.674;7.868;2024-02-23T08:24:46;16.33;;;15.13;;
9924;SDS011;5001;51.674;7.868;2024-02-23T08:27:13;16.30;;;14.80;;
9924;SDS011;5001;51.674;7.868;2024-02-23T08:29:39;15.90;;;14.90;;
9924;SDS011;5001;51.674;7.868;2024-02-23T08:32:07;16.53;;;15.43;;
9924;SDS011;5001;51.674;7.868;2024-02-23T08:34:34;16.70;;;15.20;;
9924;SDS011;5001;51.674;7.868;2024-02-23T08:37:01;16.37;;;15.27;;
9924;SDS011;5001;51.674;7.868;2024-02-23T08:39:28;16.70;;;15.30;;
9924;SDS011;5001;51.674;7.868;2024-02-23T08:41:55;17.23;;;15.83;;
9924;SDS011;5001;51.674;7.868;2024-02-23T08:44:22;16.80;;;15.50;;
9924;SDS011;5001;51.674;7.868;2024-02-23T08:46:50;17.70;;;16.30;;
9924;SDS011;5001;51.674;7.868;2024-02-23T08:49:17;16.50;;;15.40;;
9924;SDS011;5001;51.674;7.868;2024-02-23T08:51:44;17.03;;;15.30;;
9924;SDS011;5001;51.674;7.868;2024-02-23T08:54:11;16.43;;;15.23;;
9924;SDS011;5001;51.674;7.868;2024-02-23T08:56:38;16.50;;;15.30;;
9924;SDS011;5001;51.674;7.868;2024-02-23T08:59:06;16.50;;;15.20;;
9924;SDS011;5001;51.674;7.868;2024-02-23T09:01:33;16.10;;;15.00;;
9924;SDS011;5001;51.674;7.868;2024-02-23T09:04:00;16.77;;;15.50;;
9924;SDS011;5001;51.674;7.868;2024-02-23T09:06:27;16.77;;;15.57;;
9924;SDS011;5001;51.674;7.868;2024-02-23T09:08:55;17.00;;;15.70;;
9924;SDS011;5001;51.674;7.868;2024-02-23T09:11:22;16.60;;;15.50;;
9924;SDS011;5001;51.674;7.868;2024-02-23T09:13:49;16.47;;;15.37;;
9924;SDS011;5001;51.674;7.868;2024-02-23T09:16:16;16.40;;;15.30;;
9924;SDS011;5001;51.674;7.868;2024-02-23T09:18:43;16.37;;;15.27;;
9924;SDS011;5001;51.674;7.868;2024-02-23T09:21:11;16.30;;;15.17;;
9924;SDS011;5001;51.674;7.868;2024-02-23T09:23:38;16.20;;;15.10;;
9924;SDS011;5001;51.674;7.868;2024-02-23T09:26:11;16.67;;;15.47;;
9924;SDS011;5001;51.674;7.868;2024-02-23T09:28:38;16.03;;;14.93;;
9924;SDS011;5001;51.674;7.868;2024-02-23T09:31:08;16.70;;;15.50;;
9924;SDS011;5001;51.674;7.868;2024-02-23T09:33:35;16.70;;;15.60;;
9924;SDS011;5001;51.674;7.868;2024-02-23T09:36:03;17.57;;;16.23;;
9924;SDS011;5001;51.674;7.868;2024-02-23T09:38:30;17.17;;;15.80;;
9924;SDS011;5001;51.674;7.868;2024-02-23T09:40:58;17.27;;;16.03;;
9924;SDS011;5001;51.674;7.868;2024-02-23T09:43:28;17.07;;;15.40;;
9924;SDS011;5001;51.674;7.868;2024-02-23T09:45:56;16.23;;;15.23;;
9924;SDS011;5001;51.674;7.868;2024-02-23T09:48:24;18.43;;;17.00;;
9924;SDS011;5001;51.674;7.868;2024-02-23T09:50:52;16.90;;;15.50;;
9924;SDS011;5001;51.674;7.868;2024-02-23T09:53:19;16.50;;;15.40;;
9924;SDS011;5001;51.674;7.868;2024-02-23T09:55:48;16.93;;;15.73;;
9924;SDS011;5001;51.674;7.868;2024-02-23T09:58:17;17.63;;;15.90;;
9924;SDS011;5001;51.674;7.868;2024-02-23T10:00:47;16.40;;;15.20;;
9924;SDS011;5001;51.674;7.868;2024-02-23T10:03:13;16.30;;;15.20;;
9924;SDS011;5001;51.674;7.868;2024-02-23T10:05:41;16.10;;;15.00;;
9924;SDS011;5001;51.674;7.868;2024-02-23T10:08:10;16.27;;;15.23;;
9924;SDS011;5001;51.674;7.868;2024-02-23T10:10:37;16.70;;;15.40;;
9924;SDS011;5001;51.674;7.868;2024-02-23T10:13:05;17.10;;;15.50;;
9924;SDS011;5001;51.674;7.868;2024-02-23T10:15:32;17.60;;;16.30;;
9924;SDS011;5001;51.674;7.868;2024-02-23T10:17:59;16.40;;;15.30;;
9924;SDS011;5001;51.674;7.868;2024-02-23T10:20:26;16.80;;;15.53;;
9924;SDS011;5001;51.674;7.868;2024-02-23T10:22:54;16.73;;;15.53;;
9924;SDS011;5001;51.674;7.868;2024-02-23T10:25:21;16.50;;;15.40;;
9924;SDS011;5001;51.674;7.868;2024-02-23T10:27:48;17.00;;;15.80;;
9924;SDS011;5001;51.674;7.868;2024-02-23T10:30:15;16.57;;;15.43;;
9924;SDS011;5001;51.674;7.868;2024-02-23T10:32:42;17.60;;;16.30;;
9924;SDS011;5001;51.674;7.868;2024-02-23T10:35:11;17.23;;;16.03;;
9924;SDS011;5001;51.674;7.868;2024-02-23T10:37:41;17.77;;;16.57;;
9924;SDS011;5001;51.674;7.868;2024-02-23T10:40:11;18.03;;;16.73;;
9924;SDS011;5001;51.674;7.868;2024-02-23T10:42:40;17.50;;;16.27;;
9924;SDS011;5001;51.674;7.868;2024-02-23T10:45:15;17.53;;;16.23;;
9924;SDS011;5001;51.674;7.868;2024-02-23T10:47:43;18.63;;;17.20;;
9924;SDS011;5001;51.674;7.868;2024-02-23T10:50:11;18.67;;;17.20;;
9924;SDS011;5001;51.674;7.868;2024-02-23T10:52:43;18.77;;;17.38;;
9924;SDS011;5001;51.674;7.868;2024-02-23T10:55:10;18.77;;;17.10;;
9924;SDS011;5001;51.674;7.868;2024-02-23T10:57:38;19.05;;;17.55;;
9924;SDS011;5001;51.674;7.868;2024-02-23T11:00:08;19.33;;;17.63;;
9924;SDS011;5001;51.674;7.868;2024-02-23T11:02:46;23.48;;;21.15;;
9924;SDS011;5001;51.674;7.868;2024-02-23T11:05:18;18.83;;;17.42;;
9924;SDS011;5001;51.674;7.868;2024-02-23T11:07:46;18.97;;;17.53;;
9924;SDS011;5001;51.674;7.868;2024-02-23T11:10:17;19.20;;;17.70;;
9924;SDS011;5001;51.674;7.868;2024-02-23T11:12:56;18.97;;;17.43;;
9924;SDS011;5001;51.674;7.868;2024-02-23T11:15:26;18.70;;;17.30;;
9924;SDS011;5001;51.674;7.868;2024-02-23T11:17:54;18.57;;;17.17;;
9924;SDS011;5001;51.674;7.868;2024-02-23T11:20:22;18.73;;;17.23;;
9924;SDS011;5001;51.674;7.868;2024-02-23T11:22:56;19.50;;;18.00;;
9924;SDS011;5001;51.674;7.868;2024-02-23T11:25:28;18.97;;;17.47;;
9924;SDS011;5001;51.674;7.868;2024-02-23T11:27:56;18.70;;;17.30;;
9924;SDS011;5001;51.674;7.868;2024-02-23T11:30:23;18.60;;;17.20;;
9924;SDS011;5001;51.674;7.868;2024-02-23T11:32:52;19.00;;;17.60;;
9924;SDS011;5001;51.674;7.868;2024-02-23T11:35:26;18.80;;;17.30;;
9924;SDS011;5001;51.674;7.868;2024-02-23T11:37:54;18.53;;;17.23;;
9924;SDS011;5001;51.674;7.868;2024-02-23T11:40:26;18.53;;;17.23;;
9924;SDS011;5001;51.674;7.868;2024-02-23T11:42:58;18.97;;;17.30;;
9924;SDS011;5001;51.674;7.868;2024-02-23T11:45:30;19.00;;;17.23;;
9924;SDS011;5001;51.674;7.868;2024-02-23T11:47:58;18.90;;;17.30;;
9924;SDS011;5001;51.674;7.868;2024-02-23T11:50:26;18.87;;;17.13;;
9924;SDS011;5001;51.674;7.868;2024-02-23T11:52:53;18.70;;;17.20;;
9924;SDS011;5001;51.674;7.868;2024-02-23T11:55:21;18.10;;;16.80;;
9924;SDS011;5001;51.674;7.868;2024-02-23T11:57:49;18.37;;;17.07;;
9924;SDS011;5001;51.674;7.868;2024-02-23T12:00:30;18.57;;;17.27;;
9924;SDS011;5001;51.674;7.868;2024-02-23T12:02:58;18.23;;;16.92;;
9924;SDS011;5001;51.674;7.868;2024-02-23T12:05:26;18.48;;;17.17;;
9924;SDS011;5001;51.674;7.868;2024-02-23T12:07:53;18.85;;;17.45;;
9924;SDS011;5001;51.674;7.868;2024-02-23T12:10:21;18.73;;;17.23;;
9924;SDS011;5001;51.674;7.868;2024-02-23T12:12:48;18.08;;;16.77;;
9924;SDS011;5001;51.674;7.868;2024-02-23T12:15:16;18.80;;;17.13;;
9924;SDS011;5001;51.674;7.868;2024-02-23T12:17:49;18.70;;;17.17;;
9924;SDS011;5001;51.674;7.868;2024-02-23T12:20:16;18.87;;;17.20;;
9924;SDS011;5001;51.674;7.868;2024-02-23T12:22:44;18.70;;;17.20;;
9924;SDS011;5001;51.674;7.868;2024-02-23T12:25:12;18.70;;;17.30;;
9924;SDS011;5001;51.674;7.868;2024-02-23T12:27:39;18.13;;;16.83;;
9924;SDS011;5001;51.674;7.868;2024-02-23T12:30:13;18.40;;;17.10;;
9924;SDS011;5001;51.674;7.868;2024-02-23T12:32:42;18.37;;;16.90;;
9924;SDS011;5001;51.674;7.868;2024-02-23T12:35:12;18.17;;;16.80;;
9924;SDS011;5001;51.674;7.868;2024-02-23T12:37:39;18.80;;;17.30;;
9924;SDS011;5001;51.674;7.868;2024-02-23T12:40:11;18.30;;;17.00;;
9924;SDS011;5001;51.674;7.868;2024-02-23T12:42:39;18.63;;;17.10;;
9924;SDS011;5001;51.674;7.868;2024-02-23T12:45:06;17.70;;;16.40;;
9924;SDS011;5001;51.674;7.868;2024-02-23T12:47:33;17.90;;;16.60;;
9924;SDS011;5001;51.674;7.868;2024-02-23T12:50:00;17.70;;;16.50;;
9924;SDS011;5001;51.674;7.868;2024-02-23T12:52:27;17.83;;;16.63;;
9924;SDS011;5001;51.674;7.868;2024-02-23T12:54:54;18.00;;;16.70;;
9924;SDS011;5001;51.674;7.868;2024-02-23T12:57:21;17.93;;;16.57;;
9924;SDS011;5001;51.674;7.868;2024-02-23T12:59:48;18.77;;;17.10;;
9924;SDS011;5001;51.674;7.868;2024-02-23T13:02:15;18.50;;;17.07;;
9924;SDS011;5001;51.674;7.868;2024-02-23T13:04:43;18.60;;;16.97;;
9924;SDS011;5001;51.674;7.868;2024-02-23T13:07:15;18.03;;;16.73;;
9924;SDS011;5001;51.674;7.868;2024-02-23T13:09:43;17.97;;;16.77;;
9924;SDS011;5001;51.674;7.868;2024-02-23T13:12:10;17.80;;;16.33;;
9924;SDS011;5001;51.674;7.868;2024-02-23T13:14:38;17.63;;;16.10;;
9924;SDS011;5001;51.674;7.868;2024-02-23T13:17:05;17.80;;;16.40;;
9924;SDS011;5001;51.674;7.868;2024-02-23T13:19:32;18.00;;;16.70;;
9924;SDS011;5001;51.674;7.868;2024-02-23T13:21:59;18.40;;;17.00;;
9924;SDS011;5001;51.674;7.868;2024-02-23T13:24:27;18.03;;;16.73;;
9924;SDS011;5001;51.674;7.868;2024-02-23T13:26:54;18.47;;;16.97;;
9924;SDS011;5001;51.674;7.868;2024-02-23T13:29:21;18.70;;;16.87;;
9924;SDS011;5001;51.674;7.868;2024-02-23T13:31:49;17.93;;;16.50;;
9924;SDS011;5001;51.674;7.868;2024-02-23T13:34:15;19.00;;;17.60;;
9924;SDS011;5001;51.674;7.868;2024-02-23T13:36:44;17.83;;;16.43;;
9924;SDS011;5001;51.674;7.868;2024-02-23T13:39:11;18.37;;;17.07;;
9924;SDS011;5001;51.674;7.868;2024-02-23T13:41:39;18.17;;;16.87;;
9924;SDS011;5001;51.674;7.868;2024-02-23T13:44:06;18.70;;;17.10;;
9924;SDS011;5001;51.674;7.868;2024-02-23T13:46:39;18.30;;;16.90;;
9924;SDS011;5001;51.674;7.868;2024-02-23T13:49:07;19.37;;;17.77;;
9924;SDS011;5001;51.674;7.868;2024-02-23T13:51:36;18.93;;;17.33;;
9924;SDS011;5001;51.674;7.868;2024-02-23T13:54:03;19.33;;;17.73;;
9924;SDS011;5001;51.674;7.868;2024-02-23T13:56:30;18.83;;;17.40;;
9924;SDS011;5001;51.674;7.868;2024-02-23T13:58:58;18.87;;;17.37;;
9924;SDS011;5001;51.674;7.868;2024-02-23T14:01:25;19.30;;;17.70;;
9924;SDS011;5001;51.674;7.868;2024-02-23T14:03:52;18.50;;;17.07;;
9924;SDS011;5001;51.674;7.868;2024-02-23T14:06:19;19.37;;;17.50;;
9924;SDS011;5001;51.674;7.868;2024-02-23T14:08:47;19.00;;;17.60;;
9924;SDS011;5001;51.674;7.868;2024-02-23T14:11:14;18.40;;;17.00;;
9924;SDS011;5001;51.674;7.868;2024-02-23T14:13:41;19.23;;;17.63;;
9924;SDS011;5001;51.674;7.868;2024-02-23T14:16:13;19.23;;;17.53;;
9924;SDS011;5001;51.674;7.868;2024-02-23T14:18:39;19.13;;;17.40;;
9924;SDS011;5001;51.674;7.868;2024-02-23T14:21:08;19.30;;;17.37;;
9924;SDS011;5001;51.674;7.868;2024-02-23T14:23:36;18.77;;;17.30;;
9924;SDS011;5001;51.674;7.868;2024-02-23T14:26:03;18.30;;;17.00;;
9924;SDS011;5001;51.674;7.868;2024-02-23T14:28:30;18.10;;;16.60;;
9924;SDS011;5001;51.674;7.868;2024-02-23T14:30:58;19.30;;;17.80;;
9924;SDS011;5001;51.674;7.868;2024-02-23T14:33:25;18.50;;;17.00;;
9924;SDS011;5001;51.674;7.868;2024-02-23T14:35:52;18.90;;;17.40;;
9924;SDS011;5001;51.674;7.868;2024-02-23T14:38:19;18.50;;;17.00;;
9924;SDS011;5001;51.674;7.868;2024-02-23T14:40:46;18.80;;;17.30;;
9924;SDS011;5001;51.674;7.868;2024-02-23T14:43:13;18.20;;;16.57;;
9924;SDS011;5001;51.674;7.868;2024-02-23T14:45:40;17.97;;;16.57;;
9924;SDS011;5001;51.674;7.868;2024-02-23T14:48:07;17.87;;;16.57;;
9924;SDS011;5001;51.674;7.868;2024-02-23T14:50:36;17.80;;;16.60;;
9924;SDS011;5001;51.674;7.868;2024-02-23T14:53:04;18.13;;;16.53;;
9924;SDS011;5001;51.674;7.868;2024-02-23T14:55:31;18.90;;;17.00;;